createdAt,value
2023-03-30T00:00:33.008Z,50.902409
2023-03-30T00:01:33.030Z,50.902412
2023-03-30T00:02:33.029Z,50.902630
2023-03-30T00:03:33.285Z,50.902477
2023-03-30T00:04:33.033Z,50.902508
2023-03-30T00:05:32.980Z,50.902523
2023-03-30T00:06:32.998Z,50.902435
2023-03-30T00:07:32.956Z,50.902405
2023-03-30T00:08:32.944Z,50.902397
2023-03-30T00:09:32.934Z,50.902428
2023-03-30T00:10:32.960Z,50.902409
2023-03-30T00:11:32.953Z,50.902420
2023-03-30T00:12:32.971Z,50.902451
2023-03-30T00:13:32.926Z,50.902431
2023-03-30T00:14:32.900Z,50.902416
2023-03-30T00:15:32.957Z,50.902397
2023-03-30T00:16:33.050Z,50.902447
2023-03-30T00:17:33.027Z,50.902431
2023-03-30T00:18:32.873Z,50.902420
2023-03-30T00:19:32.858Z,50.902428
2023-03-30T00:20:32.900Z,50.902504
2023-03-30T00:21:33.870Z,50.902462
2023-03-30T00:22:32.840Z,50.902416
2023-03-30T00:23:32.832Z,50.902424
2023-03-30T00:24:32.856Z,50.902443
2023-03-30T00:25:32.917Z,50.902458
2023-03-30T00:26:32.841Z,50.902428
2023-03-30T00:27:32.810Z,50.902424
2023-03-30T00:28:32.837Z,50.902443
2023-03-30T00:29:32.827Z,50.902431
2023-03-30T00:30:32.786Z,50.902435
2023-03-30T00:31:32.830Z,50.902439
2023-03-30T00:32:32.778Z,50.902397
2023-03-30T00:33:44.588Z,50.902420
2023-03-30T00:34:34.755Z,50.902435
2023-03-30T00:35:32.769Z,50.902451
2023-03-30T00:36:32.773Z,50.902424
2023-03-30T00:37:32.738Z,50.902431
2023-03-30T00:38:32.742Z,50.902435
2023-03-30T00:39:32.713Z,50.902412
2023-03-30T00:40:32.726Z,50.902431
2023-03-30T00:41:32.759Z,50.902435
2023-03-30T00:42:32.694Z,50.902401
2023-03-30T00:43:32.693Z,50.902393
2023-03-30T00:44:32.718Z,50.902405
2023-03-30T00:45:32.682Z,50.902412
2023-03-30T00:46:32.851Z,50.902447
2023-03-30T00:47:32.657Z,50.902424
2023-03-30T00:48:32.643Z,50.902431
2023-03-30T00:49:33.673Z,50.902424
2023-03-30T00:50:32.634Z,50.902416
2023-03-30T00:51:32.653Z,50.902443
2023-03-30T00:52:32.610Z,50.902420
2023-03-30T00:53:32.633Z,50.902481
2023-03-30T00:54:32.604Z,50.902428
2023-03-30T00:55:32.594Z,50.902451
2023-03-30T00:56:32.613Z,50.902470
2023-03-30T00:57:32.584Z,50.902412
2023-03-30T00:58:32.577Z,50.902435
2023-03-30T00:59:32.562Z,50.902439
2023-03-30T01:00:32.556Z,50.902424
2023-03-30T01:01:32.591Z,50.902439
2023-03-30T01:02:32.764Z,50.902515
2023-03-30T01:03:32.695Z,50.902527
2023-03-30T01:04:32.549Z,50.902500
2023-03-30T01:05:32.521Z,50.902462
2023-03-30T01:06:32.566Z,50.902439
2023-03-30T01:07:32.511Z,50.902485
2023-03-30T01:08:32.600Z,50.902428
2023-03-30T01:09:32.515Z,50.902451
2023-03-30T01:10:32.488Z,50.902397
2023-03-30T01:11:32.504Z,50.902393
2023-03-30T01:12:32.473Z,50.902405
2023-03-30T01:13:32.460Z,50.902409
2023-03-30T01:14:32.459Z,50.902454
2023-03-30T01:15:32.481Z,50.902424
2023-03-30T01:16:32.489Z,50.902390
2023-03-30T01:17:32.462Z,50.902439
2023-03-30T01:18:32.423Z,50.902431
2023-03-30T01:19:32.419Z,50.902439
2023-03-30T01:20:32.420Z,50.902454
2023-03-30T01:21:32.440Z,50.902412
2023-03-30T01:22:32.398Z,50.902412
2023-03-30T01:23:32.383Z,50.902451
2023-03-30T01:24:32.377Z,50.902416
2023-03-30T01:25:32.365Z,50.902344
2023-03-30T01:26:32.396Z,50.902374
2023-03-30T01:27:32.354Z,50.902481
2023-03-30T01:28:32.358Z,50.902496
2023-03-30T01:29:32.353Z,50.902519
2023-03-30T01:30:32.337Z,50.902435
2023-03-30T01:31:32.351Z,50.902359
2023-03-30T01:32:32.375Z,50.902374
2023-03-30T01:33:32.339Z,50.902443
2023-03-30T01:34:32.323Z,50.902447
2023-03-30T01:35:32.488Z,50.902435
2023-03-30T01:36:32.325Z,50.902393
2023-03-30T01:37:32.351Z,50.902424
2023-03-30T01:38:32.278Z,50.902409
2023-03-30T01:39:32.277Z,50.902435
2023-03-30T01:40:32.258Z,50.902416
2023-03-30T01:41:32.251Z,50.902451
2023-03-30T01:42:32.269Z,50.902390
2023-03-30T01:43:32.240Z,50.902409
2023-03-30T01:44:32.225Z,50.902382
2023-03-30T01:45:32.216Z,50.902466
2023-03-30T01:46:32.234Z,50.902348
2023-03-30T01:47:32.244Z,50.902489
2023-03-30T01:48:32.195Z,50.902634
2023-03-30T01:49:32.212Z,50.902637
2023-03-30T01:50:32.204Z,50.902508
2023-03-30T01:51:32.227Z,50.902328
2023-03-30T01:52:32.192Z,50.902309
2023-03-30T01:53:32.166Z,50.902382
2023-03-30T01:54:32.158Z,50.902447
2023-03-30T01:55:32.145Z,50.902454
2023-03-30T01:56:32.142Z,50.902443
2023-03-30T01:57:32.157Z,50.902359
2023-03-30T01:58:32.123Z,50.902370
2023-03-30T01:59:32.119Z,50.902401
2023-03-30T02:00:32.125Z,50.902363
2023-03-30T02:01:32.128Z,50.902336
2023-03-30T02:02:32.185Z,50.902405
2023-03-30T02:03:32.160Z,50.902370
2023-03-30T02:04:32.089Z,50.902420
2023-03-30T02:05:32.079Z,50.902458
2023-03-30T02:06:32.067Z,50.902424
2023-03-30T02:07:32.151Z,50.902466
2023-03-30T02:08:32.069Z,50.902477
2023-03-30T02:09:32.054Z,50.902462
2023-03-30T02:10:32.043Z,50.902416
2023-03-30T02:11:32.043Z,50.902431
2023-03-30T02:12:32.056Z,50.902443
2023-03-30T02:13:32.015Z,50.902397
2023-03-30T02:14:32.031Z,50.902420
2023-03-30T02:15:32.002Z,50.902435
2023-03-30T02:16:32.014Z,50.902431
2023-03-30T02:17:32.076Z,50.902447
2023-03-30T02:18:31.983Z,50.902428
2023-03-30T02:19:31.975Z,50.902431
2023-03-30T02:20:31.967Z,50.902420
2023-03-30T02:21:31.988Z,50.902443
2023-03-30T02:22:31.974Z,50.902435
2023-03-30T02:23:31.946Z,50.902443
2023-03-30T02:24:31.925Z,50.902435
2023-03-30T02:25:31.924Z,50.902431
2023-03-30T02:26:31.916Z,50.902435
2023-03-30T02:27:31.933Z,50.902439
2023-03-30T02:28:31.903Z,50.902401
2023-03-30T02:29:31.888Z,50.902416
2023-03-30T02:30:31.880Z,50.902420
2023-03-30T02:31:31.908Z,50.902451
2023-03-30T02:32:31.974Z,50.902428
2023-03-30T02:33:31.858Z,50.902435
2023-03-30T02:34:31.860Z,50.902431
2023-03-30T02:35:31.899Z,50.902420
2023-03-30T02:36:31.839Z,50.902420
2023-03-30T02:37:31.851Z,50.902412
2023-03-30T02:38:31.829Z,50.902416
2023-03-30T02:39:31.824Z,50.902412
2023-03-30T02:40:31.808Z,50.902428
2023-03-30T02:41:31.794Z,50.902447
2023-03-30T02:42:31.839Z,50.902428
2023-03-30T02:43:31.810Z,50.902428
2023-03-30T02:44:31.783Z,50.902435
2023-03-30T02:45:31.783Z,50.902409
2023-03-30T02:46:31.769Z,50.902393
2023-03-30T02:47:31.814Z,50.902397
2023-03-30T02:48:31.744Z,50.902401
2023-03-30T02:49:31.743Z,50.902412
2023-03-30T02:50:31.752Z,50.902401
2023-03-30T02:51:31.729Z,50.902397
2023-03-30T02:52:31.717Z,50.902412
2023-03-30T02:53:31.741Z,50.902412
2023-03-30T02:54:31.724Z,50.902370
2023-03-30T02:55:31.728Z,50.902386
2023-03-30T02:56:31.687Z,50.902386
2023-03-30T02:57:31.717Z,50.902424
2023-03-30T02:58:31.699Z,50.902390
2023-03-30T02:59:31.663Z,50.902397
2023-03-30T03:00:31.658Z,50.902393
2023-03-30T03:01:31.700Z,50.902382
2023-03-30T03:02:31.710Z,50.902382
2023-03-30T03:03:31.767Z,50.902416
2023-03-30T03:04:31.639Z,50.902393
2023-03-30T03:05:31.620Z,50.902416
2023-03-30T03:06:31.617Z,50.902386
2023-03-30T03:07:31.608Z,50.902378
2023-03-30T03:08:31.621Z,50.902409
2023-03-30T03:09:31.588Z,50.902420
2023-03-30T03:10:31.580Z,50.902431
2023-03-30T03:11:31.638Z,50.902451
2023-03-30T03:12:31.572Z,50.902462
2023-03-30T03:13:31.588Z,50.902481
2023-03-30T03:14:31.609Z,50.902451
2023-03-30T03:15:31.551Z,50.902466
2023-03-30T03:16:31.574Z,50.902462
2023-03-30T03:17:31.567Z,50.902451
2023-03-30T03:18:31.785Z,50.902466
2023-03-30T03:19:31.531Z,50.902458
2023-03-30T03:20:31.508Z,50.902420
2023-03-30T03:21:31.507Z,50.902447
2023-03-30T03:22:31.536Z,50.902477
2023-03-30T03:23:32.116Z,50.902481
2023-03-30T03:24:31.480Z,50.902451
2023-03-30T03:25:31.479Z,50.902489
2023-03-30T03:26:31.468Z,50.902477
2023-03-30T03:27:31.456Z,50.902512
2023-03-30T03:28:31.476Z,50.902489
2023-03-30T03:29:31.485Z,50.902428
2023-03-30T03:30:31.439Z,50.902412
2023-03-30T03:31:31.485Z,50.902416
2023-03-30T03:32:31.449Z,50.902412
2023-03-30T03:33:31.439Z,50.902424
2023-03-30T03:34:31.449Z,50.902458
2023-03-30T03:35:31.517Z,50.902477
2023-03-30T03:36:31.380Z,50.902431
2023-03-30T03:37:31.381Z,50.902431
2023-03-30T03:38:31.369Z,50.902431
2023-03-30T03:39:31.391Z,50.902504
2023-03-30T03:40:31.360Z,50.902519
2023-03-30T03:41:31.351Z,50.902531
2023-03-30T03:42:31.401Z,50.902534
2023-03-30T03:43:31.353Z,50.902554
2023-03-30T03:44:31.365Z,50.902550
2023-03-30T03:45:31.321Z,50.902531
2023-03-30T03:46:31.368Z,50.902485
2023-03-30T03:47:31.340Z,50.902454
2023-03-30T03:48:31.288Z,50.902481
2023-03-30T03:49:31.310Z,50.902489
2023-03-30T03:50:31.283Z,50.902477
2023-03-30T03:51:31.277Z,50.902470
2023-03-30T03:52:31.267Z,50.902409
2023-03-30T03:53:31.254Z,50.902454
2023-03-30T03:54:31.276Z,50.902504
2023-03-30T03:55:31.243Z,50.902500
2023-03-30T03:56:31.246Z,50.902485
2023-03-30T03:57:31.266Z,50.902500
2023-03-30T03:58:31.247Z,50.902473
2023-03-30T03:59:31.246Z,50.902451
2023-03-30T04:00:31.217Z,50.902409
2023-03-30T04:01:31.208Z,50.902454
2023-03-30T04:02:31.288Z,50.902470
2023-03-30T04:03:31.200Z,50.902451
2023-03-30T04:04:31.220Z,50.902458
2023-03-30T04:05:31.171Z,50.902462
2023-03-30T04:06:31.165Z,50.902473
2023-03-30T04:07:31.160Z,50.902462
2023-03-30T04:08:31.154Z,50.902428
2023-03-30T04:09:31.160Z,50.902477
2023-03-30T04:10:31.121Z,50.902500
2023-03-30T04:11:31.181Z,50.902473
2023-03-30T04:12:31.108Z,50.902435
2023-03-30T04:13:31.120Z,50.902454
2023-03-30T04:14:31.119Z,50.902447
2023-03-30T04:15:31.081Z,50.902466
2023-03-30T04:16:31.141Z,50.902443
2023-03-30T04:17:31.074Z,50.902473
2023-03-30T04:18:31.059Z,50.902477
2023-03-30T04:19:31.083Z,50.902515
2023-03-30T04:20:31.049Z,50.902477
2023-03-30T04:21:31.041Z,50.902447
2023-03-30T04:22:31.050Z,50.902458
2023-03-30T04:23:31.021Z,50.902439
2023-03-30T04:24:31.050Z,50.902443
2023-03-30T04:25:31.018Z,50.902466
2023-03-30T04:26:31.013Z,50.902454
2023-03-30T04:27:30.986Z,50.902466
2023-03-30T04:28:30.991Z,50.902466
2023-03-30T04:29:31.010Z,50.902447
2023-03-30T04:30:30.975Z,50.902435
2023-03-30T04:31:31.004Z,50.902470
2023-03-30T04:32:31.016Z,50.902462
2023-03-30T04:33:30.974Z,50.902489
2023-03-30T04:34:31.131Z,50.902485
2023-03-30T04:35:31.052Z,50.902481
2023-03-30T04:36:30.924Z,50.902462
2023-03-30T04:37:30.928Z,50.902409
2023-03-30T04:38:30.920Z,50.902393
2023-03-30T04:39:30.917Z,50.902412
2023-03-30T04:40:30.922Z,50.902462
2023-03-30T04:41:30.897Z,50.902451
2023-03-30T04:42:30.883Z,50.902515
2023-03-30T04:43:30.887Z,50.902443
2023-03-30T04:44:30.867Z,50.902451
2023-03-30T04:45:30.946Z,50.902409
2023-03-30T04:46:30.854Z,50.902439
2023-03-30T04:47:30.881Z,50.902493
2023-03-30T04:48:30.847Z,50.902485
2023-03-30T04:49:30.828Z,50.902431
2023-03-30T04:50:30.848Z,50.902405
2023-03-30T04:51:30.810Z,50.902439
2023-03-30T04:52:30.812Z,50.902420
2023-03-30T04:53:30.799Z,50.902435
2023-03-30T04:54:33.163Z,50.902458
2023-03-30T04:55:31.813Z,50.902435
2023-03-30T04:56:30.780Z,50.902416
2023-03-30T04:57:30.807Z,50.902443
2023-03-30T04:58:30.764Z,50.902466
2023-03-30T04:59:30.757Z,50.902519
2023-03-30T05:00:30.765Z,50.902500
2023-03-30T05:01:30.790Z,50.902454
2023-03-30T05:02:30.845Z,50.902473
2023-03-30T05:03:30.796Z,50.902477
2023-03-30T05:04:30.713Z,50.902473
2023-03-30T05:05:30.735Z,50.902470
2023-03-30T05:06:30.699Z,50.902481
2023-03-30T05:07:30.696Z,50.902481
2023-03-30T05:08:30.732Z,50.902569
2023-03-30T05:09:30.714Z,50.902481
2023-03-30T05:10:30.699Z,50.902477
2023-03-30T05:11:30.667Z,50.902489
2023-03-30T05:12:30.661Z,50.902546
2023-03-30T05:13:30.644Z,50.902500
2023-03-30T05:14:30.646Z,50.902500
2023-03-30T05:15:30.661Z,50.902435
2023-03-30T05:16:30.693Z,50.902416
2023-03-30T05:17:30.643Z,50.902508
2023-03-30T05:18:30.615Z,50.902473
2023-03-30T05:19:30.600Z,50.902470
2023-03-30T05:20:30.622Z,50.902458
2023-03-30T05:21:30.579Z,50.902454
2023-03-30T05:22:31.570Z,50.902435
2023-03-30T05:23:30.565Z,50.902485
2023-03-30T05:24:30.605Z,50.902443
2023-03-30T05:25:30.576Z,50.902443
2023-03-30T05:26:30.569Z,50.902443
2023-03-30T05:27:30.547Z,50.902477
2023-03-30T05:28:32.399Z,50.902443
2023-03-30T05:29:31.549Z,50.902439
2023-03-30T05:30:30.539Z,50.902473
2023-03-30T05:31:30.528Z,50.902466
2023-03-30T05:32:30.580Z,50.902466
2023-03-30T05:33:30.500Z,50.902481
2023-03-30T05:34:30.507Z,50.902458
2023-03-30T05:35:30.510Z,50.902451
2023-03-30T05:36:30.476Z,50.902451
2023-03-30T05:37:30.477Z,50.902431
2023-03-30T05:38:30.462Z,50.902435
2023-03-30T05:39:30.527Z,50.902447
2023-03-30T05:40:30.517Z,50.902451
2023-03-30T05:41:30.447Z,50.902481
2023-03-30T05:42:30.419Z,50.902493
2023-03-30T05:43:30.417Z,50.902462
2023-03-30T05:44:31.408Z,50.902462
2023-03-30T05:45:30.464Z,50.902451
2023-03-30T05:46:30.453Z,50.902466
2023-03-30T05:47:30.435Z,50.902451
2023-03-30T05:48:30.379Z,50.902458
2023-03-30T05:49:30.375Z,50.902451
2023-03-30T05:50:30.392Z,50.902447
2023-03-30T05:51:30.360Z,50.902454
2023-03-30T05:52:30.343Z,50.902466
2023-03-30T05:53:30.399Z,50.902470
2023-03-30T05:54:30.329Z,50.902470
2023-03-30T05:55:30.363Z,50.902473
2023-03-30T05:56:30.324Z,50.902435
2023-03-30T05:57:30.401Z,50.902443
2023-03-30T05:58:30.304Z,50.902466
2023-03-30T05:59:30.295Z,50.902466
2023-03-30T06:00:30.320Z,50.902458
2023-03-30T06:01:30.280Z,50.902462
2023-03-30T06:02:30.333Z,50.902466
2023-03-30T06:03:30.380Z,50.902451
2023-03-30T06:04:30.293Z,50.902451
2023-03-30T06:05:30.291Z,50.902451
2023-03-30T06:06:30.243Z,50.902431
2023-03-30T06:07:30.259Z,50.902443
2023-03-30T06:08:30.225Z,50.902447
2023-03-30T06:09:30.232Z,50.902435
2023-03-30T06:10:30.251Z,50.902435
2023-03-30T06:11:30.211Z,50.902439
2023-03-30T06:12:30.206Z,50.902454
2023-03-30T06:13:30.193Z,50.902443
2023-03-30T06:14:30.189Z,50.902443
2023-03-30T06:15:30.208Z,50.902451
2023-03-30T06:16:30.205Z,50.902435
2023-03-30T06:17:30.226Z,50.902401
2023-03-30T06:18:30.801Z,50.902431
2023-03-30T06:19:30.141Z,50.902462
2023-03-30T06:20:30.163Z,50.902477
2023-03-30T06:21:30.133Z,50.902435
2023-03-30T06:22:31.977Z,50.902462
2023-03-30T06:23:31.138Z,50.902405
2023-03-30T06:24:30.112Z,50.902416
2023-03-30T06:25:30.145Z,50.902443
2023-03-30T06:26:30.093Z,50.902412
2023-03-30T06:27:30.091Z,50.902409
2023-03-30T06:28:30.080Z,50.902431
2023-03-30T06:29:30.069Z,50.902470
2023-03-30T06:30:30.165Z,50.902424
2023-03-30T06:31:30.102Z,50.902447
2023-03-30T06:32:30.110Z,50.902428
2023-03-30T06:33:30.046Z,50.902382
2023-03-30T06:34:30.032Z,50.902409
2023-03-30T06:35:30.059Z,50.902424
2023-03-30T06:36:45.228Z,50.902420
2023-03-30T06:37:31.019Z,50.902424
2023-03-30T06:38:30.008Z,50.902401
2023-03-30T06:39:30.056Z,50.902378
2023-03-30T06:40:30.013Z,50.902370
2023-03-30T06:41:29.974Z,50.902374
2023-03-30T06:42:29.974Z,50.902390
2023-03-30T06:43:29.961Z,50.902386
2023-03-30T06:44:29.948Z,50.902439
2023-03-30T06:45:29.965Z,50.902409
2023-03-30T06:46:30.020Z,50.902359
2023-03-30T06:47:29.937Z,50.902367
2023-03-30T06:48:29.935Z,50.902386
2023-03-30T06:49:29.913Z,50.902378
2023-03-30T06:50:29.897Z,50.902405
2023-03-30T06:51:29.917Z,50.902397
2023-03-30T06:52:29.880Z,50.902390
2023-03-30T06:53:30.138Z,50.902382
2023-03-30T06:54:29.884Z,50.902382
2023-03-30T06:55:29.878Z,50.902378
2023-03-30T06:56:29.888Z,50.902386
2023-03-30T06:57:29.893Z,50.902390
2023-03-30T06:58:29.840Z,50.902374
2023-03-30T06:59:31.417Z,50.902409
2023-03-30T07:00:29.903Z,50.902405
2023-03-30T07:01:29.899Z,50.902386
2023-03-30T07:02:29.844Z,50.902390
2023-03-30T07:03:29.798Z,50.902405
2023-03-30T07:04:29.818Z,50.902393
2023-03-30T07:05:29.798Z,50.902378
2023-03-30T07:06:29.850Z,50.902390
2023-03-30T07:07:29.772Z,50.902382
2023-03-30T07:08:29.756Z,50.902382
2023-03-30T07:09:29.920Z,50.902370
2023-03-30T07:10:29.755Z,50.902336
2023-03-30T07:11:29.764Z,50.902374
2023-03-30T07:12:29.741Z,50.902374
2023-03-30T07:13:29.735Z,50.902378
2023-03-30T07:14:29.714Z,50.902374
2023-03-30T07:15:29.721Z,50.902363
2023-03-30T07:16:29.758Z,50.902367
2023-03-30T07:17:29.801Z,50.902367
2023-03-30T07:18:29.712Z,50.902355
2023-03-30T07:19:29.679Z,50.902363
2023-03-30T07:20:30.208Z,50.902390
2023-03-30T07:21:29.694Z,50.902378
2023-03-30T07:22:29.650Z,50.902382
2023-03-30T07:23:29.692Z,50.902374
2023-03-30T07:24:29.663Z,50.902363
2023-03-30T07:25:29.649Z,50.902359
2023-03-30T07:26:29.652Z,50.902378
2023-03-30T07:27:29.611Z,50.902336
2023-03-30T07:28:29.622Z,50.902386
2023-03-30T07:29:29.613Z,50.902382
2023-03-30T07:30:29.600Z,50.902355
2023-03-30T07:31:29.677Z,50.902378
2023-03-30T07:32:29.640Z,50.902382
2023-03-30T07:33:29.605Z,50.902367
2023-03-30T07:34:29.574Z,50.902363
2023-03-30T07:35:29.555Z,50.902348
2023-03-30T07:36:29.578Z,50.902325
2023-03-30T07:37:29.551Z,50.902367
2023-03-30T07:38:29.528Z,50.902409
2023-03-30T07:39:32.117Z,50.902420
2023-03-30T07:40:29.557Z,50.902382
2023-03-30T07:41:29.538Z,50.902370
2023-03-30T07:42:29.510Z,50.902397
2023-03-30T07:43:29.500Z,50.902378
2023-03-30T07:44:29.486Z,50.902336
2023-03-30T07:45:29.473Z,50.902348
2023-03-30T07:46:29.570Z,50.902367
2023-03-30T07:47:29.492Z,50.902359
2023-03-30T07:48:29.465Z,50.902332
2023-03-30T07:49:29.442Z,50.902390
2023-03-30T07:50:29.445Z,50.902344
2023-03-30T07:51:29.472Z,50.902336
2023-03-30T07:52:29.441Z,50.902340
2023-03-30T07:53:29.423Z,50.902321
2023-03-30T07:54:29.425Z,50.902397
2023-03-30T07:55:29.403Z,50.902416
2023-03-30T07:56:29.437Z,50.902355
2023-03-30T07:57:29.580Z,50.902370
2023-03-30T07:58:29.387Z,50.902367
2023-03-30T07:59:29.368Z,50.902340
2023-03-30T08:00:29.360Z,50.902355
2023-03-30T08:01:29.384Z,50.902386
2023-03-30T08:02:29.387Z,50.902390
2023-03-30T08:03:29.538Z,50.902367
2023-03-30T08:04:29.419Z,50.902378
2023-03-30T08:05:29.327Z,50.902363
2023-03-30T08:06:29.348Z,50.902374
2023-03-30T08:07:29.307Z,50.902336
2023-03-30T08:08:29.316Z,50.902332
2023-03-30T08:09:29.289Z,50.902363
2023-03-30T08:10:29.286Z,50.902306
2023-03-30T08:11:29.320Z,50.902317
2023-03-30T08:12:29.267Z,50.902306
2023-03-30T08:13:29.260Z,50.902348
2023-03-30T08:14:29.253Z,50.902355
2023-03-30T08:15:29.255Z,50.902355
2023-03-30T08:16:29.276Z,50.902374
2023-03-30T08:17:29.345Z,50.902363
2023-03-30T08:18:29.325Z,50.902416
2023-03-30T08:19:29.219Z,50.902454
2023-03-30T08:20:29.209Z,50.902386
2023-03-30T08:21:29.234Z,50.902336
2023-03-30T08:22:29.201Z,50.902328
2023-03-30T08:23:29.185Z,50.902344
2023-03-30T08:24:29.204Z,50.902340
2023-03-30T08:25:29.211Z,50.902393
2023-03-30T08:26:29.190Z,50.902439
2023-03-30T08:27:29.193Z,50.902344
2023-03-30T08:28:29.158Z,50.902386
2023-03-30T08:29:29.147Z,50.902409
2023-03-30T08:30:29.138Z,50.902370
2023-03-30T08:31:29.208Z,50.902405
2023-03-30T08:32:29.166Z,50.902409
2023-03-30T08:33:29.110Z,50.902348
2023-03-30T08:34:29.143Z,50.902401
2023-03-30T08:35:29.147Z,50.902485
2023-03-30T08:36:29.123Z,50.902378
2023-03-30T08:37:29.081Z,50.902348
2023-03-30T08:38:29.076Z,50.902374
2023-03-30T08:39:29.068Z,50.902458
2023-03-30T08:40:29.062Z,50.902370
2023-03-30T08:41:29.085Z,50.902378
2023-03-30T08:42:29.045Z,50.902382
2023-03-30T08:43:29.033Z,50.902401
2023-03-30T08:44:29.055Z,50.902393
2023-03-30T08:45:29.064Z,50.902382
2023-03-30T08:46:29.194Z,50.902397
2023-03-30T08:47:29.037Z,50.902355
2023-03-30T08:48:29.003Z,50.902390
2023-03-30T08:49:28.997Z,50.902439
2023-03-30T08:50:28.980Z,50.902409
2023-03-30T08:51:29.000Z,50.902405
2023-03-30T08:52:28.974Z,50.902374
2023-03-30T08:53:28.974Z,50.902405
2023-03-30T08:54:29.032Z,50.902420
2023-03-30T08:55:28.955Z,50.902443
2023-03-30T08:56:29.356Z,50.902447
2023-03-30T08:57:28.955Z,50.902462
2023-03-30T08:58:28.918Z,50.902458
2023-03-30T08:59:28.919Z,50.902473
2023-03-30T09:00:28.999Z,50.902443
2023-03-30T09:01:29.997Z,50.902428
2023-03-30T09:02:28.931Z,50.902470
2023-03-30T09:03:28.905Z,50.902393
2023-03-30T09:04:28.875Z,50.902393
2023-03-30T09:05:28.987Z,50.902451
2023-03-30T09:06:28.885Z,50.902496
2023-03-30T09:07:28.837Z,50.902512
2023-03-30T09:08:28.851Z,50.902466
2023-03-30T09:09:28.831Z,50.902431
2023-03-30T09:10:28.881Z,50.902374
2023-03-30T09:11:28.908Z,50.902367
2023-03-30T09:12:28.836Z,50.902393
2023-03-30T09:13:28.806Z,50.902435
2023-03-30T09:14:28.799Z,50.902420
2023-03-30T09:15:30.492Z,50.902431
2023-03-30T09:16:28.898Z,50.902431
2023-03-30T09:17:28.829Z,50.902451
2023-03-30T09:18:28.759Z,50.902451
2023-03-30T09:19:28.802Z,50.902443
2023-03-30T09:20:28.752Z,50.902462
2023-03-30T09:21:28.765Z,50.902485
2023-03-30T09:22:28.909Z,50.902451
2023-03-30T09:23:28.732Z,50.902473
2023-03-30T09:24:28.721Z,50.902462
2023-03-30T09:25:28.722Z,50.902431
2023-03-30T09:26:28.710Z,50.902416
2023-03-30T09:27:28.736Z,50.902424
2023-03-30T09:28:28.692Z,50.902420
2023-03-30T09:29:28.685Z,50.902424
2023-03-30T09:30:28.673Z,50.902431
2023-03-30T09:31:28.700Z,50.902424
2023-03-30T09:32:28.727Z,50.902466
2023-03-30T09:33:28.686Z,50.902458
2023-03-30T09:34:28.656Z,50.902470
2023-03-30T09:35:28.656Z,50.902443
2023-03-30T09:36:28.675Z,50.902420
2023-03-30T09:37:28.637Z,50.902424
2023-03-30T09:38:29.619Z,50.902439
2023-03-30T09:39:29.240Z,50.902428
2023-03-30T09:40:28.612Z,50.902428
2023-03-30T09:41:28.599Z,50.902454
2023-03-30T09:42:28.618Z,50.902443
2023-03-30T09:43:28.575Z,50.902409
2023-03-30T09:44:28.580Z,50.902431
2023-03-30T09:45:29.731Z,50.902435
2023-03-30T09:46:28.589Z,50.902485
2023-03-30T09:47:28.650Z,50.902412
2023-03-30T09:48:28.536Z,50.902458
2023-03-30T09:49:28.526Z,50.902481
2023-03-30T09:50:28.576Z,50.902462
2023-03-30T09:51:30.698Z,50.902439
2023-03-30T09:52:29.571Z,50.902435
2023-03-30T09:53:28.503Z,50.902416
2023-03-30T09:54:28.494Z,50.902424
2023-03-30T09:55:28.498Z,50.902416
2023-03-30T09:56:28.550Z,50.902416
2023-03-30T09:57:28.610Z,50.902397
2023-03-30T09:58:28.455Z,50.902382
2023-03-30T09:59:28.458Z,50.902397
2023-03-30T10:00:28.449Z,50.902401
2023-03-30T10:01:28.504Z,50.902397
2023-03-30T10:02:28.498Z,50.902409
2023-03-30T10:03:28.552Z,50.902409
2023-03-30T10:04:28.454Z,50.902386
2023-03-30T10:05:28.408Z,50.902401
2023-03-30T10:06:28.399Z,50.902416
2023-03-30T10:07:28.421Z,50.902416
2023-03-30T10:08:28.395Z,50.902409
2023-03-30T10:09:28.379Z,50.902393
2023-03-30T10:10:28.363Z,50.902412
2023-03-30T10:11:28.360Z,50.902401
2023-03-30T10:12:28.399Z,50.902412
2023-03-30T10:13:28.350Z,50.902393
2023-03-30T10:14:29.050Z,50.902412
2023-03-30T10:15:31.264Z,50.902439
2023-03-30T10:16:28.404Z,50.902451
2023-03-30T10:17:28.447Z,50.902428
2023-03-30T10:18:28.341Z,50.902431
2023-03-30T10:19:28.419Z,50.902412
2023-03-30T10:20:28.291Z,50.902443
2023-03-30T10:21:29.561Z,50.902443
2023-03-30T10:22:28.276Z,50.902447
2023-03-30T10:23:28.295Z,50.902443
2023-03-30T10:24:29.270Z,50.902420
2023-03-30T10:25:28.256Z,50.902428
2023-03-30T10:26:28.236Z,50.902412
2023-03-30T10:27:29.321Z,50.902416
2023-03-30T10:28:28.224Z,50.902454
2023-03-30T10:29:28.224Z,50.902431
2023-03-30T10:30:28.227Z,50.902435
2023-03-30T10:31:28.485Z,50.902393
2023-03-30T10:32:28.266Z,50.902439
2023-03-30T10:33:28.211Z,50.902412
2023-03-30T10:34:28.194Z,50.902412
2023-03-30T10:35:28.207Z,50.902420
2023-03-30T10:36:28.162Z,50.902382
2023-03-30T10:37:28.176Z,50.902401
2023-03-30T10:38:28.181Z,50.902397
2023-03-30T10:39:28.134Z,50.902409
2023-03-30T10:40:28.133Z,50.902416
2023-03-30T10:41:28.135Z,50.902405
2023-03-30T10:42:28.197Z,50.902409
2023-03-30T10:43:28.217Z,50.902409
2023-03-30T10:44:28.098Z,50.902409
2023-03-30T10:45:28.090Z,50.902424
2023-03-30T10:46:28.357Z,50.902420
2023-03-30T10:47:28.221Z,50.902409
2023-03-30T10:48:28.098Z,50.902401
2023-03-30T10:49:28.061Z,50.902393
2023-03-30T10:50:28.089Z,50.902412
2023-03-30T10:51:28.045Z,50.902401
2023-03-30T10:52:28.048Z,50.902409
2023-03-30T10:53:28.062Z,50.902431
2023-03-30T10:54:28.030Z,50.902401
2023-03-30T10:55:28.033Z,50.902393
2023-03-30T10:56:28.016Z,50.902401
2023-03-30T10:57:28.019Z,50.902393
2023-03-30T10:58:28.014Z,50.902393
2023-03-30T10:59:28.002Z,50.902390
2023-03-30T11:00:27.977Z,50.902374
2023-03-30T11:01:28.027Z,50.902416
2023-03-30T11:02:28.103Z,50.902390
2023-03-30T11:03:28.042Z,50.902374
2023-03-30T11:04:28.103Z,50.902367
2023-03-30T11:05:30.391Z,50.902382
2023-03-30T11:06:27.941Z,50.902420
2023-03-30T11:07:28.037Z,50.902454
2023-03-30T11:08:27.951Z,50.902416
2023-03-30T11:09:28.066Z,50.902393
2023-03-30T11:10:28.898Z,50.902412
2023-03-30T11:11:27.917Z,50.902397
2023-03-30T11:12:27.887Z,50.902428
2023-03-30T11:13:27.906Z,50.902374
2023-03-30T11:14:27.890Z,50.902367
2023-03-30T11:15:27.903Z,50.902416
2023-03-30T11:16:27.881Z,50.902428
2023-03-30T11:17:27.934Z,50.902401
2023-03-30T11:18:27.870Z,50.902382
2023-03-30T11:19:27.828Z,50.902367
2023-03-30T11:20:27.870Z,50.902431
2023-03-30T11:21:27.819Z,50.902428
2023-03-30T11:22:27.806Z,50.902424
2023-03-30T11:23:27.847Z,50.902405
2023-03-30T11:24:27.913Z,50.902416